Time;durP1;ratioP1;P1;durP2;ratioP2;P2;SDS_P1;SDS_P2;PMS_P1;PMS_P2;Temp;Humidity;BMP_temperature;BMP_pressure;BME280_temperature;BME280_humidity;BME280_pressure;Samples;Min_cycle;Max_cycle;Signal;HPM_P1;HPM_P2
2022/06/28 00:02:25;;;;;;;;;2.00;0.75;;;;;20.82;75.82;101808.59;5059629;28;45383;-80
2022/06/28 00:04:50;;;;;;;;;2.00;1.00;;;;;20.87;76.33;101816.59;5095556;27;45643;-80
2022/06/28 00:07:16;;;;;;;;;1.00;1.00;;;;;20.82;76.77;101808.59;5096143;27;45866;-80
2022/06/28 00:09:42;;;;;;;;;0.75;0.00;;;;;20.87;76.70;101819.22;5083354;27;45857;-81
2022/06/28 00:12:07;;;;;;;;;2.00;0.75;;;;;20.78;76.82;101808.53;5077188;27;45307;-80
2022/06/28 00:17:17;;;;;;;;;2.50;0.00;;;;;20.82;76.82;101812.97;5089653;27;45437;-80
2022/06/28 00:19:43;;;;;;;;;0.50;0.50;;;;;20.82;77.13;101805.97;5076129;28;45453;-81
2022/06/28 00:22:08;;;;;;;;;0.75;0.75;;;;;20.80;77.84;101809.41;5077179;27;45264;-80
2022/06/28 00:24:34;;;;;;;;;0.50;0.00;;;;;20.72;77.87;101799.63;5083642;27;45472;-80
2022/06/28 00:27:00;;;;;;;;;3.00;1.25;;;;;20.68;77.65;101799.53;5073004;27;46951;-80
2022/06/28 00:29:25;;;;;;;;;1.00;1.00;;;;;20.72;77.38;101804.88;5076720;27;45430;-83
2022/06/28 00:31:51;;;;;;;;;1.50;0.75;;;;;20.71;78.49;101813.63;5080602;27;45440;-82
2022/06/28 00:34:16;;;;;;;;;2.00;2.00;;;;;20.65;78.57;101789.84;5081632;27;45608;-84
2022/06/28 00:36:42;;;;;;;;;3.25;1.00;;;;;20.66;77.44;101804.78;5095752;27;45465;-83
2022/06/28 00:39:08;;;;;;;;;1.50;1.50;;;;;20.58;78.18;101785.28;5086971;28;45328;-84
2022/06/28 00:41:34;;;;;;;;;1.00;1.00;;;;;20.65;78.45;101799.47;5082693;27;45417;-83
2022/06/28 00:44:01;;;;;;;;;1.00;1.00;;;;;20.67;78.53;101801.28;5108600;27;45360;-79
2022/06/28 00:46:27;;;;;;;;;1.25;1.00;;;;;20.68;79.53;101807.41;5093337;27;45994;-81
2022/06/28 00:48:53;;;;;;;;;2.00;1.00;;;;;20.58;79.23;101782.66;5079562;27;45264;-82
2022/06/28 00:51:18;;;;;;;;;3.00;1.50;;;;;20.63;80.03;101812.59;5079285;28;45236;-81
2022/06/28 00:53:44;;;;;;;;;2.00;2.00;;;;;20.56;80.26;101801.06;5079808;27;45277;-80
2022/06/28 00:56:09;;;;;;;;;1.00;1.00;;;;;20.56;79.79;101808.97;5057434;28;45454;-81
2022/06/28 00:58:35;;;;;;;;;1.00;1.00;;;;;20.51;79.57;101805.38;5041084;28;45495;-84
2022/06/28 01:01:01;;;;;;;;;1.00;1.00;;;;;20.50;80.51;101802.69;5059586;28;45379;-83
2022/06/28 01:03:27;;;;;;;;;1.00;1.00;;;;;20.45;81.06;101802.59;5081782;27;45574;-82
2022/06/28 01:05:54;;;;;;;;;1.00;1.00;;;;;20.38;80.89;101804.22;5099922;27;46191;-80
2022/06/28 01:08:19;;;;;;;;;2.00;1.00;;;;;20.44;81.20;101800.81;5098928;27;45500;-79
2022/06/28 01:10:46;;;;;;;;;5.25;2.00;;;;;20.46;81.54;101806.13;5096144;27;45326;-79
2022/06/28 01:13:12;;;;;;;;;3.00;1.00;;;;;20.45;81.07;101809.63;5061974;28;45441;-80
2022/06/28 01:15:40;;;;;;;;;2.00;1.00;;;;;20.41;81.89;101793.75;5096467;27;45424;-80
2022/06/28 01:18:07;;;;;;;;;1.00;1.00;;;;;20.39;82.14;101797.22;5084743;27;45804;-80
2022/06/28 01:20:33;;;;;;;;;2.50;1.00;;;;;20.40;81.61;101796.38;5080506;27;45499;-79
2022/06/28 01:22:58;;;;;;;;;1.00;1.00;;;;;20.37;82.26;101797.19;5103372;27;45410;-81
2022/06/28 01:25:24;;;;;;;;;1.25;1.25;;;;;20.31;82.65;101788.28;5106900;27;46060;-81
2022/06/28 01:27:55;;;;;;;;;2.00;2.00;;;;;20.30;82.35;101779.50;5100880;27;45265;-81
2022/06/28 01:30:21;;;;;;;;;2.75;2.75;;;;;20.34;82.81;101796.22;5081626;27;45302;-80
2022/06/28 01:32:47;;;;;;;;;3.75;2.00;;;;;20.24;82.63;101789.91;5080375;27;45581;-80
2022/06/28 01:35:13;;;;;;;;;3.00;2.00;;;;;20.29;82.40;101792.63;5079177;27;45394;-80
2022/06/28 01:37:38;;;;;;;;;1.25;1.25;;;;;20.30;82.90;101790.03;5079541;27;45409;-81
2022/06/28 01:40:06;;;;;;;;;3.00;1.25;;;;;20.17;82.47;101773.13;5099096;27;45390;-81
2022/06/28 01:42:32;;;;;;;;;0.25;0.25;;;;;20.29;82.82;101792.63;5095989;27;45202;-80
2022/06/28 01:44:59;;;;;;;;;1.00;1.00;;;;;20.27;82.36;101789.97;5078767;27;46209;-81
2022/06/28 01:47:26;;;;;;;;;2.50;1.00;;;;;20.29;82.42;101803.16;5077792;27;45678;-83
2022/06/28 01:49:52;;;;;;;;;2.00;1.00;;;;;20.20;83.09;101782.81;5080647;27;45300;-83
2022/06/28 01:52:19;;;;;;;;;1.00;1.00;;;;;20.29;83.27;101797.91;5088763;27;45319;-83
2022/06/28 01:54:45;;;;;;;;;1.75;1.00;;;;;20.28;83.29;101796.13;5078486;27;45327;-81
2022/06/28 01:57:11;;;;;;;;;2.00;2.00;;;;;20.23;82.12;101782.88;5080502;27;45373;-83
2022/06/28 01:59:38;;;;;;;;;1.00;0.75;;;;;20.25;82.71;101786.41;5078489;27;45367;-83
2022/06/28 02:02:04;;;;;;;;;1.00;1.00;;;;;20.26;81.60;101780.28;5091824;27;45562;-83
2022/06/28 02:04:30;;;;;;;;;1.00;1.00;;;;;20.13;80.87;101762.53;5096422;27;46042;-83
2022/06/28 02:06:57;;;;;;;;;1.00;1.00;;;;;20.16;82.14;101786.22;5093025;27;45758;-83
2022/06/28 02:09:24;;;;;;;;;1.75;0.00;;;;;20.14;81.91;101786.19;5086619;27;45327;-84
2022/06/28 02:11:50;;;;;;;;;0.00;0.00;;;;;20.08;82.40;101788.72;5099633;27;45549;-84
2022/06/28 02:14:16;;;;;;;;;2.00;1.00;;;;;20.02;82.87;101771.06;5089893;27;45397;-83
2022/06/28 02:16:42;;;;;;;;;0.00;0.00;;;;;20.08;82.69;101778.19;5083694;28;45735;-83
2022/06/28 02:19:07;;;;;;;;;2.25;1.00;;;;;20.05;82.19;101772.88;5095971;27;45473;-83
2022/06/28 02:21:38;;;;;;;;;0.00;0.00;;;;;20.05;82.12;101778.13;5102822;27;45331;-80
2022/06/28 02:24:05;;;;;;;;;0.75;0.75;;;;;20.00;82.62;101770.13;5093211;27;45438;-79
2022/06/28 02:26:32;;;;;;;;;1.75;1.00;;;;;20.00;82.01;101779.75;5067458;28;45340;-79
2022/06/28 02:28:59;;;;;;;;;2.75;1.00;;;;;19.95;82.14;101777.03;5078098;27;45428;-78
2022/06/28 02:31:25;;;;;;;;;1.50;1.00;;;;;19.83;82.18;101760.94;5077935;27;45178;-78
2022/06/28 02:33:50;;;;;;;;;0.00;0.00;;;;;19.86;81.54;101767.22;5077780;27;45474;-78
2022/06/28 02:41:45;;;;;;;;;0.25;0.25;;;;;19.85;80.18;101777.66;5097835;27;45346;-78
2022/06/28 02:44:10;;;;;;;;;1.00;1.00;;;;;19.82;81.41;101782.81;5097541;27;46408;-78
2022/06/28 02:46:36;;;;;;;;;0.50;0.50;;;;;19.75;81.05;101768.69;5098086;27;45730;-81
2022/06/28 02:49:03;;;;;;;;;2.00;0.50;;;;;19.72;81.39;101763.38;5084796;27;45357;-81
2022/06/28 02:51:29;;;;;;;;;1.50;0.00;;;;;19.76;80.90;101776.59;5078350;27;45359;-81
2022/06/28 02:53:55;;;;;;;;;0.00;0.00;;;;;19.66;81.64;101766.75;5082738;27;45455;-81
2022/06/28 02:56:21;;;;;;;;;0.00;0.00;;;;;19.70;80.55;101781.72;5095585;27;45393;-81
2022/06/28 02:58:47;;;;;;;;;0.00;0.00;;;;;19.62;81.14;101767.50;5077934;28;45355;-80
2022/06/28 03:01:14;;;;;;;;;1.25;0.50;;;;;19.67;81.15;101778.13;5078018;27;45198;-79
2022/06/28 03:03:40;;;;;;;;;0.00;0.00;;;;;19.67;80.36;101783.38;5077530;28;46286;-80
2022/06/28 03:06:06;;;;;;;;;2.00;1.00;;;;;19.66;81.14;101782.50;5077098;27;45707;-79
2022/06/28 03:08:33;;;;;;;;;2.00;0.00;;;;;19.63;80.76;101779.78;5085699;27;45479;-79
2022/06/28 03:10:59;;;;;;;;;1.00;1.00;;;;;19.63;81.06;101782.41;5097956;27;45314;-79
2022/06/28 03:13:24;;;;;;;;;0.00;0.00;;;;;19.59;81.31;101784.09;5097451;27;46163;-82
2022/06/28 03:15:50;;;;;;;;;0.00;0.00;;;;;19.58;82.07;101787.56;5097189;27;45314;-79
2022/06/28 03:18:16;;;;;;;;;0.25;0.25;;;;;19.43;81.50;101759.22;5090560;27;45464;-80
2022/06/28 03:20:42;;;;;;;;;1.00;0.50;;;;;19.53;82.19;101786.59;5097647;27;45510;-80
2022/06/28 03:23:09;;;;;;;;;0.25;0.25;;;;;19.48;82.02;101770.72;5078363;27;45688;-79
2022/06/28 03:25:35;;;;;;;;;0.00;0.00;;;;;19.48;83.06;101780.34;5081968;27;45307;-80
2022/06/28 03:28:00;;;;;;;;;2.00;0.00;;;;;19.45;83.25;101778.53;5084991;27;45334;-80
2022/06/28 03:30:26;;;;;;;;;0.50;0.50;;;;;19.46;82.71;101782.94;5078287;27;45511;-83
2022/06/28 03:32:52;;;;;;;;;0.25;0.00;;;;;19.45;83.81;101773.28;5055089;28;46632;-81
2022/06/28 03:35:18;;;;;;;;;3.00;1.50;;;;;19.50;83.86;101783.88;5087649;27;45315;-81
2022/06/28 03:37:43;;;;;;;;;0.25;0.25;;;;;19.44;83.47;101766.25;5093560;27;45324;-80
2022/06/28 03:40:09;;;;;;;;;1.75;0.50;;;;;19.47;83.70;101768.94;5082846;27;45734;-84
2022/06/28 03:42:36;;;;;;;;;1.50;1.50;;;;;19.51;83.02;101783.03;5086532;27;45355;-84
2022/06/28 03:45:02;;;;;;;;;2.00;1.00;;;;;19.52;83.28;101794.41;5075965;27;45564;-84
2022/06/28 03:47:28;;;;;;;;;1.00;1.00;;;;;19.47;84.19;101791.69;5076668;27;45347;-83
2022/06/28 03:49:54;;;;;;;;;1.00;1.00;;;;;19.42;83.45;101785.44;5095091;27;45361;-83
2022/06/28 03:52:28;;;;;;;;;1.00;1.00;;;;;19.43;84.32;101790.72;5097765;27;45360;-85
2022/06/28 03:54:57;;;;;;;;;1.00;1.00;;;;;19.41;83.80;101784.53;5096872;27;45404;-84
2022/06/28 03:57:25;;;;;;;;;1.00;1.00;;;;;19.43;84.11;101793.34;5077052;27;45431;-83
2022/06/28 03:59:51;;;;;;;;;2.75;2.00;;;;;19.36;84.09;101782.66;5079357;27;45457;-80
2022/06/28 04:02:17;;;;;;;;;3.00;1.00;;;;;19.38;82.72;101783.59;5091940;27;46088;-79
2022/06/28 04:04:42;;;;;;;;;0.75;0.75;;;;;19.34;83.23;101783.50;5078043;27;45744;-79
2022/06/28 04:07:08;;;;;;;;;3.00;1.00;;;;;19.39;83.57;101790.63;5096780;27;45456;-80
2022/06/28 04:09:33;;;;;;;;;1.00;1.00;;;;;19.39;83.24;101806.38;5082049;27;45347;-80
2022/06/28 04:11:59;;;;;;;;;0.75;0.75;;;;;19.44;82.86;101794.22;5076147;27;46341;-80
2022/06/28 04:14:25;;;;;;;;;1.00;1.00;;;;;19.47;82.61;101800.47;5075697;27;45407;-81
2022/06/28 04:16:50;;;;;;;;;1.25;1.25;;;;;19.47;82.99;101799.56;5076391;27;45366;-80
2022/06/28 04:19:18;;;;;;;;;2.75;1.50;;;;;19.46;83.31;101792.53;5077223;27;45414;-79
2022/06/28 04:21:44;;;;;;;;;2.00;1.00;;;;;19.50;82.62;101797.03;5091951;27;45425;-80
2022/06/28 04:24:09;;;;;;;;;1.00;1.00;;;;;19.48;82.16;101791.75;5092391;27;45310;-81
2022/06/28 04:26:35;;;;;;;;;3.00;2.00;;;;;19.46;81.88;101779.41;5101520;27;45413;-80
2022/06/28 04:29:01;;;;;;;;;2.25;1.25;;;;;19.42;81.70;101777.56;5089705;27;45244;-78
2022/06/28 04:31:26;;;;;;;;;2.00;2.00;;;;;19.46;81.90;101792.53;5077520;28;45778;-79
2022/06/28 04:33:52;;;;;;;;;3.00;2.00;;;;;19.41;81.31;101784.53;5082343;27;45894;-80
2022/06/28 04:36:18;;;;;;;;;3.00;3.00;;;;;19.44;81.86;101794.22;5091853;27;45535;-80
2022/06/28 04:38:44;;;;;;;;;1.00;1.00;;;;;19.44;81.13;101789.88;5088644;27;45561;-79
2022/06/28 04:41:10;;;;;;;;;3.50;3.50;;;;;19.48;81.41;101802.25;5075718;27;45435;-79
2022/06/28 04:43:35;;;;;;;;;3.00;2.50;;;;;19.49;81.80;101795.25;5076980;27;45535;-80
2022/06/28 04:46:01;;;;;;;;;1.00;1.00;;;;;19.54;80.94;101803.22;5076206;27;45387;-79
2022/06/28 04:48:27;;;;;;;;;2.25;1.00;;;;;19.53;80.00;101798.81;5079758;27;45484;-78
2022/06/28 04:50:52;;;;;;;;;1.50;1.50;;;;;19.57;80.67;101798.06;5077601;27;46270;-80
2022/06/28 04:53:18;;;;;;;;;2.00;0.75;;;;;19.55;80.06;101803.25;5065148;27;45497;-80
2022/06/28 04:55:44;;;;;;;;;1.50;1.00;;;;;19.58;79.38;101798.06;5071464;27;45328;-80
2022/06/28 04:58:09;;;;;;;;;3.00;2.25;;;;;19.58;79.55;101811.22;5076424;27;45248;-80
2022/06/28 05:00:35;;;;;;;;;1.00;1.00;;;;;19.56;78.59;101804.16;5092903;27;45981;-80
2022/06/28 05:03:01;;;;;;;;;2.00;2.00;;;;;19.59;78.79;101813.00;5094217;27;45544;-81
2022/06/28 05:05:26;;;;;;;;;2.00;2.00;;;;;19.58;78.65;101805.09;5095388;27;45236;-80
2022/06/28 05:07:52;;;;;;;;;1.00;1.00;;;;;19.47;78.07;101797.84;5096198;27;45342;-80
2022/06/28 05:10:17;;;;;;;;;1.25;1.25;;;;;19.43;77.94;101798.59;5095292;27;46090;-80
2022/06/28 05:12:43;;;;;;;;;1.00;1.00;;;;;19.43;78.35;101797.75;5103707;27;45424;-80
2022/06/28 05:15:09;;;;;;;;;2.50;2.50;;;;;19.46;79.18;101811.81;5099879;27;45538;-79
2022/06/28 05:17:35;;;;;;;;;2.00;2.00;;;;;19.29;79.04;101773.75;5084868;27;45248;-81
2022/06/28 05:20:02;;;;;;;;;2.50;2.00;;;;;19.56;77.76;101815.53;5059099;28;47895;-80
2022/06/28 05:22:28;;;;;;;;;2.00;2.00;;;;;19.53;77.78;101812.88;5038209;28;45732;-80
2022/06/28 05:24:55;;;;;;;;;3.50;0.50;;;;;19.62;77.77;101818.31;5094688;27;45335;-82
2022/06/28 05:27:20;;;;;;;;;2.00;2.00;;;;;19.65;77.24;101815.75;5075817;27;45688;-83
2022/06/28 05:29:46;;;;;;;;;4.25;4.00;;;;;19.62;77.87;101806.91;5086358;27;45980;-83
2022/06/28 05:32:12;;;;;;;;;1.75;0.00;;;;;19.72;77.02;101811.53;5079287;27;45449;-84
2022/06/28 05:34:38;;;;;;;;;1.75;1.00;;;;;19.74;76.23;101804.56;5078068;28;46538;-84
2022/06/28 05:37:12;;;;;;;;;2.50;2.00;;;;;19.75;76.20;101802.84;5078754;28;45403;-80
2022/06/28 05:39:40;;;;;;;;;1.00;1.00;;;;;19.84;75.93;101824.09;5056433;28;45639;-86
2022/06/28 05:42:05;;;;;;;;;1.00;1.00;;;;;19.78;75.34;101800.28;5078517;28;45689;-80
2022/06/28 05:44:31;;;;;;;;;2.00;1.00;;;;;19.77;75.45;101798.50;5078021;27;45594;-75
2022/06/28 05:46:57;;;;;;;;;1.75;1.00;;;;;19.82;75.42;101793.34;5086619;27;45319;-84
2022/06/28 05:49:22;;;;;;;;;1.25;1.25;;;;;19.89;75.46;101811.94;5078225;27;47044;-77
2022/06/28 05:51:48;;;;;;;;;3.00;1.25;;;;;19.88;74.92;101801.41;5089413;27;45478;-84
2022/06/28 05:54:13;;;;;;;;;1.00;1.00;;;;;19.83;75.14;101793.41;5060350;28;45461;-80
2022/06/28 05:56:39;;;;;;;;;3.00;1.00;;;;;19.88;74.87;101804.03;5081837;27;45518;-81
2022/06/28 05:59:05;;;;;;;;;2.75;2.75;;;;;19.99;75.08;101807.78;5085671;28;45446;-89
2022/06/28 06:01:31;;;;;;;;;2.00;1.00;;;;;19.88;75.13;101780.38;5085165;27;45299;-89
2022/06/28 06:03:57;;;;;;;;;4.00;4.00;;;;;20.05;74.74;101800.03;5063271;28;45542;-87
2022/06/28 06:06:24;;;;;;;;;4.75;2.00;;;;;20.08;74.54;101805.34;5083163;27;45261;-88
2022/06/28 06:08:51;;;;;;;;;1.50;1.00;;;;;20.10;74.68;101803.66;5065496;28;46875;-86
2022/06/28 06:11:17;;;;;;;;;2.00;2.00;;;;;20.10;74.88;101808.91;5079991;27;45557;-80
2022/06/28 06:13:43;;;;;;;;;3.00;2.00;;;;;20.03;74.89;101791.22;5079858;27;45509;-86
2022/06/28 06:16:09;;;;;;;;;2.00;2.00;;;;;20.03;74.62;101799.09;5079561;28;45645;-81
2022/06/28 06:18:34;;;;;;;;;3.25;1.50;;;;;19.96;75.17;101789.31;5078577;27;46034;-80
2022/06/28 06:21:00;;;;;;;;;4.00;4.00;;;;;19.98;75.28;101794.63;5078326;27;45402;-81
2022/06/28 06:23:26;;;;;;;;;5.00;3.00;;;;;19.96;75.81;101784.06;5079025;27;45356;-83
2022/06/28 06:25:52;;;;;;;;;1.75;1.75;;;;;19.94;75.81;101784.03;5081188;27;46385;-84
2022/06/28 06:28:18;;;;;;;;;2.00;2.00;;;;;19.95;74.79;101777.94;5073234;27;46141;-80
2022/06/28 06:30:43;;;;;;;;;2.75;2.00;;;;;19.98;74.81;101795.50;5073548;27;45446;-85
2022/06/28 06:33:09;;;;;;;;;1.75;1.50;;;;;19.99;74.69;101788.50;5076998;27;45422;-77
2022/06/28 06:35:34;;;;;;;;;1.75;1.25;;;;;20.02;74.87;101796.44;5079831;27;45632;-83
2022/06/28 06:38:00;;;;;;;;;2.50;1.50;;;;;19.96;74.90;101784.06;5078120;28;46055;-78
2022/06/28 06:40:30;;;;;;;;;3.00;2.00;;;;;20.04;74.74;101781.59;5077025;28;45812;-81
2022/06/28 06:42:56;;;;;;;;;1.25;1.25;;;;;19.93;74.48;101761.22;5081248;27;45421;-81
2022/06/28 06:45:22;;;;;;;;;1.50;1.50;;;;;19.99;74.21;101765.75;5079737;28;45777;-81
2022/06/28 06:47:48;;;;;;;;;3.75;2.00;;;;;20.12;73.89;101779.16;5091676;27;45572;-84
2022/06/28 06:50:14;;;;;;;;;3.25;1.75;;;;;20.11;72.78;101770.34;5089434;27;45344;-84
2022/06/28 06:52:40;;;;;;;;;1.00;1.00;;;;;20.21;72.78;101784.59;5079737;27;45548;-82
2022/06/28 06:55:06;;;;;;;;;2.00;1.25;;;;;20.19;72.44;101778.41;5084153;27;45495;-87
2022/06/28 06:57:32;;;;;;;;;3.25;2.00;;;;;20.21;72.29;101780.19;5081136;27;45451;-84
2022/06/28 06:59:58;;;;;;;;;1.00;1.00;;;;;20.25;72.12;101775.88;5096013;27;45318;-80
2022/06/28 07:02:23;;;;;;;;;2.00;2.00;;;;;20.27;71.95;101766.28;5079055;28;45389;-83
2022/06/28 07:04:49;;;;;;;;;1.00;1.00;;;;;20.39;70.71;101778.81;5077914;27;45324;-82
2022/06/28 07:07:14;;;;;;;;;2.00;1.00;;;;;20.44;70.39;101768.38;5059050;28;48112;-82
2022/06/28 07:09:40;;;;;;;;;1.75;1.00;;;;;20.46;69.90;101780.69;5083166;27;45425;-83
2022/06/28 07:12:07;;;;;;;;;2.00;1.00;;;;;20.38;69.99;101756.00;5078361;27;45379;-82
2022/06/28 07:14:32;;;;;;;;;2.25;1.25;;;;;20.41;69.28;101750.78;5078837;27;45472;-85
2022/06/28 07:16:58;;;;;;;;;2.00;2.00;;;;;20.41;69.38;101743.78;5067187;27;46905;-84
2022/06/28 07:19:24;;;;;;;;;2.00;2.00;;;;;20.55;69.21;101758.94;5075856;27;45665;-80
2022/06/28 07:21:49;;;;;;;;;2.00;2.00;;;;;20.55;68.84;101751.06;5078388;27;45476;-82
2022/06/28 07:24:17;;;;;;;;;1.50;1.00;;;;;20.55;68.45;101744.03;5078363;27;45367;-84
2022/06/28 07:26:43;;;;;;;;;2.50;1.00;;;;;20.57;68.08;101739.69;5074963;28;45898;-86
2022/06/28 07:29:08;;;;;;;;;1.00;1.00;;;;;20.53;67.81;101722.06;5078281;27;45710;-86
2022/06/28 07:31:34;;;;;;;;;2.75;2.75;;;;;20.63;68.19;101731.03;5080822;27;45591;-84
2022/06/28 07:34:00;;;;;;;;;2.75;1.00;;;;;20.56;68.11;101714.25;5082429;28;45426;-85
2022/06/28 07:36:26;;;;;;;;;1.00;1.00;;;;;20.68;68.33;101729.34;5077569;28;46144;-86
2022/06/28 07:38:54;;;;;;;;;3.50;1.00;;;;;20.66;67.51;101717.94;5058524;28;45439;-84
2022/06/28 07:41:23;;;;;;;;;2.00;2.00;;;;;20.77;68.39;101736.56;5057087;28;45446;-86
2022/06/28 07:43:51;;;;;;;;;3.00;2.25;;;;;20.71;67.58;101718.00;5056491;28;45587;-84
2022/06/28 07:46:18;;;;;;;;;2.25;2.25;;;;;20.79;67.88;101726.94;5054988;28;47880;-86
2022/06/28 07:48:44;;;;;;;;;1.00;1.00;;;;;20.74;68.06;101723.34;5057256;28;45585;-84
2022/06/28 07:53:54;;;;;;;;;2.00;2.00;;;;;20.82;67.44;101720.84;5081870;27;45220;-84
2022/06/28 07:56:19;;;;;;;;;3.00;3.00;;;;;20.83;67.47;101714.72;5078224;28;46281;-87
2022/06/28 07:58:45;;;;;;;;;3.00;2.00;;;;;20.67;68.30;101679.34;5065625;27;45257;-86
2022/06/28 08:01:10;;;;;;;;;1.75;1.75;;;;;20.85;67.54;101699.84;5079503;27;45258;-86
2022/06/28 08:03:36;;;;;;;;;2.00;2.00;;;;;20.75;67.80;101682.13;5078849;27;45352;-85
2022/06/28 08:06:03;;;;;;;;;2.75;2.50;;;;;20.92;67.03;101714.88;5090989;27;46051;-86
2022/06/28 08:08:28;;;;;;;;;3.25;3.00;;;;;20.93;67.68;101700.84;5073860;27;45923;-84
2022/06/28 08:10:54;;;;;;;;;3.00;2.50;;;;;21.00;66.33;101710.63;5065177;28;47045;-85
2022/06/28 08:13:20;;;;;;;;;4.75;3.00;;;;;21.00;66.85;101707.09;5070315;28;45355;-87
2022/06/28 08:15:46;;;;;;;;;2.50;2.50;;;;;21.01;66.72;101707.13;5079212;27;46899;-86
2022/06/28 08:18:13;;;;;;;;;2.00;1.25;;;;;20.94;66.78;101680.69;5083480;27;45264;-83
2022/06/28 08:20:38;;;;;;;;;3.00;3.00;;;;;21.09;66.08;101698.47;5096017;27;45383;-86
2022/06/28 08:23:04;;;;;;;;;2.75;2.00;;;;;21.07;66.10;101692.28;5081903;28;45566;-85
2022/06/28 08:25:30;;;;;;;;;3.00;1.50;;;;;21.00;65.25;101676.38;5061356;28;46938;-82
2022/06/28 08:27:56;;;;;;;;;1.00;1.00;;;;;21.04;65.56;101672.06;5076214;28;45510;-85
2022/06/28 08:30:21;;;;;;;;;4.00;2.00;;;;;21.17;65.69;101696.84;5076628;28;45412;-86
2022/06/28 08:32:47;;;;;;;;;2.75;2.25;;;;;21.18;65.83;101688.09;5076121;27;45228;-85
2022/06/28 08:35:12;;;;;;;;;1.25;1.25;;;;;21.12;65.10;101670.44;5067632;28;46589;-84
2022/06/28 08:37:38;;;;;;;;;1.00;1.00;;;;;21.22;65.16;101681.97;5062422;28;45411;-84
2022/06/28 08:40:05;;;;;;;;;4.25;3.50;;;;;21.29;64.10;101685.59;5055823;28;45285;-83
2022/06/28 08:42:35;;;;;;;;;2.00;1.00;;;;;21.30;63.10;101682.09;5072855;27;45329;-85
2022/06/28 08:45:03;;;;;;;;;2.00;2.00;;;;;21.27;62.61;101667.13;5079371;27;45678;-85
2022/06/28 08:47:33;;;;;;;;;2.25;2.25;;;;;21.31;63.76;101668.06;5083851;27;45688;-82
2022/06/28 08:50:19;;;;;;;;;3.50;1.25;;;;;21.30;63.11;101663.66;5096405;27;45334;-83
2022/06/28 08:52:47;;;;;;;;;3.00;1.00;;;;;21.33;62.43;101651.41;5094208;27;45346;-82
2022/06/28 08:55:13;;;;;;;;;1.00;1.00;;;;;21.37;62.50;101648.81;5077494;27;46602;-83
2022/06/28 08:57:41;;;;;;;;;2.00;2.00;;;;;21.45;61.99;101648.06;5100053;27;45291;-81
2022/06/28 09:00:11;;;;;;;;;5.00;2.25;;;;;21.50;62.24;101653.41;5104087;27;45289;-83
2022/06/28 09:02:37;;;;;;;;;3.00;3.00;;;;;21.54;62.34;101651.69;5108089;27;45388;-83
2022/06/28 09:05:03;;;;;;;;;5.00;4.00;;;;;21.49;62.37;101628.78;5107114;27;45627;-84
2022/06/28 09:07:29;;;;;;;;;5.75;3.00;;;;;21.58;62.12;101641.19;5106564;27;45343;-84
2022/06/28 09:09:55;;;;;;;;;2.00;2.00;;;;;21.63;60.16;101634.28;5089498;27;46294;-81
2022/06/28 09:12:22;;;;;;;;;3.00;2.50;;;;;21.57;59.69;101620.97;5085580;27;45465;-85
2022/06/28 09:14:48;;;;;;;;;3.25;2.00;;;;;21.65;59.20;101627.25;5095165;27;46062;-85
2022/06/28 09:17:28;;;;;;;;;2.00;2.00;;;;;21.59;57.11;101603.47;5082194;27;45626;-84
2022/06/28 09:20:03;;;;;;;;;1.00;1.00;;;;;21.64;56.38;101611.44;5101836;27;45278;-87
2022/06/28 09:22:29;;;;;;;;;2.75;2.00;;;;;21.73;57.13;101621.22;5079516;27;45500;-84
2022/06/28 09:24:55;;;;;;;;;2.25;2.25;;;;;21.78;56.50;101616.84;5099332;27;46149;-85
2022/06/28 09:27:30;;;;;;;;;3.75;1.50;;;;;21.80;56.43;101612.50;5099060;27;45359;-82
2022/06/28 09:29:56;;;;;;;;;3.00;2.00;;;;;21.86;56.38;101615.22;5089757;27;45280;-81
2022/06/28 09:32:40;;;;;;;;;2.50;2.00;;;;;21.86;54.71;101596.75;5078804;27;45336;-81
2022/06/28 09:35:11;;;;;;;;;2.00;2.00;;;;;21.91;54.94;101608.22;5078882;28;46231;-85
2022/06/28 09:37:49;;;;;;;;;3.00;3.00;;;;;21.91;53.25;101581.00;5079449;28;45349;-79
2022/06/28 09:40:19;;;;;;;;;2.00;2.00;;;;;22.03;52.31;101588.13;5078600;28;45379;-82
2022/06/28 09:43:19;;;;;;;;;1.00;1.00;;;;;21.98;51.15;101572.25;5076576;28;45494;-83
2022/06/28 09:45:47;;;;;;;;;2.75;2.25;;;;;22.10;51.66;101575.00;5015176;27;45539;-90
2022/06/28 09:48:18;;;;;;;;;2.00;2.00;;;;;22.16;53.53;101589.13;5085667;28;45326;-89
2022/06/28 09:50:44;;;;;;;;;3.25;1.75;;;;;22.18;52.16;101584.75;5061942;27;45453;-86
2022/06/28 09:53:14;;;;;;;;;2.00;1.50;;;;;22.18;52.01;101579.47;5090199;27;45537;-85
2022/06/28 09:55:40;;;;;;;;;2.00;2.00;;;;;22.22;52.84;101586.56;5105762;27;45336;-85
2022/06/28 09:58:08;;;;;;;;;2.00;2.00;;;;;22.03;52.74;101545.94;5103120;27;45282;-89
2022/06/28 10:00:35;;;;;;;;;3.00;1.25;;;;;22.15;52.78;101561.88;5086390;27;45406;-88
2022/06/28 10:03:01;;;;;;;;;1.25;1.25;;;;;22.11;51.19;101558.31;5103136;27;45474;-88
2022/06/28 10:05:29;;;;;;;;;1.00;1.00;;;;;22.08;50.56;101541.59;5072336;27;46801;-88
2022/06/28 10:07:56;;;;;;;;;2.00;2.00;;;;;22.35;49.13;101569.06;5072898;28;45700;-90
2022/06/28 10:10:25;;;;;;;;;1.75;1.75;;;;;22.40;48.91;101572.63;5073074;28;45520;-91
2022/06/28 10:15:53;;;;;;;;;0.50;0.50;;;;;22.45;48.27;101563.00;5109525;27;45444;-90
2022/06/28 10:18:21;;;;;;;;;2.00;2.00;;;;;22.33;47.44;101545.31;5114164;27;45075;-86
2022/06/28 10:20:47;;;;;;;;;1.00;1.00;;;;;22.36;47.40;101545.31;5104341;27;45334;-87
2022/06/28 10:23:25;;;;;;;;;1.00;1.00;;;;;22.45;46.82;101560.38;5084392;27;45378;-89
2022/06/28 10:26:18;;;;;;;;;1.00;1.00;;;;;22.47;46.78;101549.81;5080282;27;46901;-82
2022/06/28 10:28:47;;;;;;;;;1.50;1.00;;;;;22.53;46.67;101561.31;5095985;27;45607;-90
2022/06/28 10:31:24;;;;;;;;;2.00;1.25;;;;;22.58;46.91;101561.34;5097653;27;45399;-85
2022/06/28 10:34:03;;;;;;;;;2.00;1.25;;;;;22.45;46.76;101514.66;5082560;27;45718;-80
2022/06/28 10:36:43;;;;;;;;;1.00;1.00;;;;;22.63;47.17;101535.88;5106640;27;45230;-88
2022/06/28 10:39:09;;;;;;;;;1.50;1.50;;;;;22.64;47.75;101535.00;5101643;27;45219;-83
2022/06/28 10:41:41;;;;;;;;;1.25;1.00;;;;;22.61;47.90;101523.56;5085252;28;45296;-85
2022/06/28 10:44:15;;;;;;;;;1.00;1.00;;;;;22.49;47.85;101496.22;5083770;28;45439;-91
2022/06/28 10:46:48;;;;;;;;;2.00;1.00;;;;;22.75;47.74;101528.91;5062220;28;46779;-88
2022/06/28 10:49:14;;;;;;;;;1.75;1.00;;;;;22.77;46.04;101514.84;5078833;28;45438;-88
2022/06/28 10:52:10;;;;;;;;;2.00;1.25;;;;;22.78;44.89;101519.25;5059932;28;45499;-88
2022/06/28 10:54:36;;;;;;;;;2.00;2.00;;;;;22.86;44.94;101533.34;5054786;28;45272;-88
2022/06/28 10:57:21;;;;;;;;;0.75;0.75;;;;;22.64;44.93;101481.31;5060988;28;47208;-86
2022/06/28 10:59:49;;;;;;;;;1.75;1.75;;;;;22.94;45.31;101524.63;5080976;27;45539;-84
2022/06/28 11:02:16;;;;;;;;;2.50;2.50;;;;;22.95;45.46;101523.72;5086933;28;45450;-83
2022/06/28 11:04:43;;;;;;;;;1.75;1.00;;;;;22.86;46.03;101482.31;5093510;27;45601;-87
2022/06/28 11:07:22;;;;;;;;;1.00;1.00;;;;;23.00;45.60;101516.69;5089086;27;47087;-85
2022/06/28 11:10:05;;;;;;;;;1.00;1.00;;;;;22.69;45.50;101456.72;5076675;27;45624;-85
2022/06/28 11:12:37;;;;;;;;;1.00;1.00;;;;;23.05;45.80;101509.69;5081416;27;45319;-89
2022/06/28 11:15:22;;;;;;;;;2.00;1.75;;;;;23.04;45.82;101500.00;5084690;27;45548;-90
2022/06/28 11:17:48;;;;;;;;;2.00;2.00;;;;;23.10;44.85;101502.66;5063203;27;47163;-85
2022/06/28 11:20:21;;;;;;;;;1.50;1.00;;;;;23.18;45.02;101495.63;5075325;27;45530;-82
2022/06/28 11:22:50;;;;;;;;;2.25;2.25;;;;;23.07;44.91;101462.16;5081189;27;45481;-84
2022/06/28 11:25:17;;;;;;;;;2.00;2.00;;;;;23.25;44.76;101495.72;5090146;27;45522;-85
2022/06/28 11:27:53;;;;;;;;;0.00;0.00;;;;;23.42;43.36;101509.84;5081680;28;46200;-85
2022/06/28 11:30:23;;;;;;;;;2.25;1.25;;;;;23.52;42.85;101499.28;5080994;27;45675;-89
2022/06/28 11:32:50;;;;;;;;;1.00;1.00;;;;;23.70;43.10;101501.09;5073225;28;45518;-89
2022/06/28 11:35:23;;;;;;;;;1.00;1.00;;;;;23.77;43.27;101489.63;5068278;27;45508;-85
2022/06/28 11:37:52;;;;;;;;;1.50;1.00;;;;;23.88;43.11;101502.88;5072358;27;46522;-88
2022/06/28 11:40:20;;;;;;;;;2.00;2.00;;;;;23.90;42.96;101491.41;5069530;27;45666;-87